createdAt,value
2022-08-24T00:00:43.237Z,98998.50
2022-08-24T00:02:15.785Z,99006.56
2022-08-24T00:03:55.373Z,98996.22
2022-08-24T00:05:31.043Z,99002.41
2022-08-24T00:07:05.280Z,98999.50
2022-08-24T00:08:45.392Z,98998.25
2022-08-24T00:10:22.277Z,98995.44
2022-08-24T00:11:55.652Z,98982.66
2022-08-24T00:13:32.477Z,98999.00
2022-08-24T00:15:07.705Z,98997.28
2022-08-24T00:16:40.508Z,99003.38
2022-08-24T00:18:14.134Z,99004.38
2022-08-24T00:19:47.624Z,99017.06
2022-08-24T00:21:21.143Z,99018.66
2022-08-24T00:22:54.598Z,99034.66
2022-08-24T00:24:28.880Z,99037.34
2022-08-24T00:26:04.668Z,99035.63
2022-08-24T00:27:41.374Z,99054.72
2022-08-24T00:29:14.010Z,99043.00
2022-08-24T00:30:47.617Z,99046.63
2022-08-24T00:32:20.889Z,99045.94
2022-08-24T00:33:54.863Z,99042.38
2022-08-24T00:35:28.285Z,99045.19
2022-08-24T00:37:01.543Z,99039.56
2022-08-24T00:38:35.761Z,99036.88
2022-08-24T00:40:13.956Z,99028.81
2022-08-24T00:41:51.315Z,99034.97
2022-08-24T00:43:25.445Z,99037.38
2022-08-24T00:44:59.830Z,99039.59
2022-08-24T00:46:44.061Z,99030.09
2022-08-24T00:48:22.190Z,99039.59
2022-08-24T00:49:59.763Z,99042.75
2022-08-24T00:51:37.826Z,99057.66
2022-08-24T00:53:17.376Z,99064.66
2022-08-24T00:54:54.861Z,99060.09
2022-08-24T00:56:32.554Z,99047.91
2022-08-24T00:58:14.524Z,99070.59
2022-08-24T00:59:55.442Z,99094.81
2022-08-24T01:01:30.625Z,99103.09
2022-08-24T01:03:07.434Z,99102.50
2022-08-24T01:04:45.457Z,99114.59
2022-08-24T01:06:19.629Z,99127.28
2022-08-24T01:07:53.120Z,99126.47
2022-08-24T01:09:25.635Z,99132.78
2022-08-24T01:11:02.166Z,99134.66
2022-08-24T01:12:37.906Z,99133.66
2022-08-24T01:14:12.589Z,99129.28
2022-08-24T01:15:49.522Z,99124.72
2022-08-24T01:17:52.486Z,99146.84
2022-08-24T01:19:35.459Z,99148.78
2022-08-24T01:21:16.306Z,99146.84
2022-08-24T01:23:00.771Z,99159.78
2022-08-24T01:24:37.476Z,99173.00
2022-08-24T01:26:17.596Z,99165.69
2022-08-24T01:27:53.275Z,99171.88
2022-08-24T01:29:31.655Z,99174.47
2022-08-24T01:31:04.330Z,99180.09
2022-08-24T01:32:38.645Z,99165.31
2022-08-24T01:34:13.178Z,99155.16
2022-08-24T01:35:46.813Z,99135.25
2022-08-24T01:37:20.139Z,99148.44
2022-08-24T01:38:54.428Z,99153.94
2022-08-24T01:40:35.712Z,99161.28
2022-08-24T01:42:09.397Z,99165.78
2022-08-24T01:43:42.991Z,99170.81
2022-08-24T01:45:16.385Z,99154.16
2022-08-24T01:46:53.716Z,99163.22
2022-08-24T01:48:28.240Z,99164.94
2022-08-24T01:50:02.729Z,99167.38
2022-08-24T01:51:35.978Z,99169.06
2022-08-24T01:53:10.868Z,99168.84
2022-08-24T01:54:44.519Z,99163.22
2022-08-24T01:56:19.139Z,99167.63
2022-08-24T01:57:51.393Z,99164.94
2022-08-24T01:59:25.537Z,99165.69
2022-08-24T02:00:58.251Z,99163.81
2022-08-24T02:02:33.445Z,99164.69
2022-08-24T02:04:09.977Z,99167.50
2022-08-24T02:05:44.243Z,99165.91
2022-08-24T02:07:20.358Z,99166.03
2022-08-24T02:08:55.678Z,99166.91
2022-08-24T02:10:30.154Z,99154.19
2022-08-24T02:12:06.063Z,99165.56
2022-08-24T02:13:42.997Z,99163.59
2022-08-24T02:15:16.206Z,99156.63
2022-08-24T02:16:50.697Z,99163.47
2022-08-24T02:18:33.378Z,99164.22
2022-08-24T02:20:09.128Z,99168.59
2022-08-24T02:21:42.856Z,99162.75
2022-08-24T02:23:16.199Z,99160.19
2022-08-24T02:24:48.595Z,99159.94
2022-08-24T02:26:22.211Z,99158.84
2022-08-24T02:27:57.926Z,99161.31
2022-08-24T02:29:32.047Z,99158.63
2022-08-24T02:31:06.406Z,99150.03
2022-08-24T02:32:40.128Z,99146.34
2022-08-24T02:34:13.460Z,99158.34
2022-08-24T02:35:47.243Z,99159.22
2022-08-24T02:37:21.456Z,99165.47
2022-08-24T02:38:55.198Z,99166.28
2022-08-24T02:40:29.356Z,99165.47
2022-08-24T02:42:03.645Z,99161.78
2022-08-24T02:43:38.531Z,99156.88
2022-08-24T02:45:12.955Z,99160.44
2022-08-24T02:46:46.279Z,99163.00
2022-08-24T02:48:19.371Z,99159.31
2022-08-24T02:49:52.791Z,99156.63
2022-08-24T02:51:29.172Z,99161.31
2022-08-24T02:53:03.575Z,99156.16
2022-08-24T02:54:36.519Z,99166.28
2022-08-24T02:56:10.404Z,99166.69
2022-08-24T02:57:44.001Z,99159.06
2022-08-24T02:59:20.045Z,99173.22
2022-08-24T03:00:56.068Z,99164.22
2022-08-24T03:02:29.779Z,99166.16
2022-08-24T03:04:03.641Z,99164.44
2022-08-24T03:05:37.563Z,99162.75
2022-08-24T03:07:11.674Z,99166.16
2022-08-24T03:08:47.897Z,99157.09
2022-08-24T03:10:29.734Z,99153.69
2022-08-24T03:12:04.966Z,99159.06
2022-08-24T03:13:41.554Z,99152.22
2022-08-24T03:15:16.765Z,99152.72
2022-08-24T03:16:50.273Z,99153.81
2022-08-24T03:18:26.202Z,99159.94
2022-08-24T03:20:00.351Z,99158.84
2022-08-24T03:21:35.600Z,99163.22
2022-08-24T03:23:09.599Z,99160.53
2022-08-24T03:24:41.918Z,99164.94
2022-08-24T03:26:15.489Z,99163.97
2022-08-24T03:27:49.629Z,99166.16
2022-08-24T03:29:23.972Z,99169.34
2022-08-24T03:30:59.437Z,99165.69
2022-08-24T03:32:32.425Z,99165.44
2022-08-24T03:34:05.989Z,99160.78
2022-08-24T03:35:38.807Z,99155.91
2022-08-24T03:37:12.988Z,99152.81
2022-08-24T03:38:46.352Z,99150.03
2022-08-24T03:40:23.150Z,99153.69
2022-08-24T03:42:01.119Z,99153.94
2022-08-24T03:43:50.416Z,99147.97
2022-08-24T03:45:25.272Z,99157.84
2022-08-24T03:47:02.286Z,99160.31
2022-08-24T03:48:35.886Z,99157.84
2022-08-24T03:50:10.600Z,99153.34
2022-08-24T03:51:45.388Z,99159.56
2022-08-24T03:53:18.257Z,99152.47
2022-08-24T03:54:52.397Z,99158.09
2022-08-24T03:56:27.839Z,99149.03
2022-08-24T03:58:02.063Z,99141.72
2022-08-24T03:59:41.237Z,99158.44
2022-08-24T04:01:20.000Z,99149.53
2022-08-24T04:02:54.110Z,99156.16
2022-08-24T04:04:31.844Z,99153.06
2022-08-24T04:06:05.757Z,99144.75
2022-08-24T04:07:39.134Z,99149.19
2022-08-24T04:09:12.999Z,99151.72
2022-08-24T04:10:50.234Z,99152.13
2022-08-24T04:12:24.223Z,99150.66
2022-08-24T04:13:59.805Z,99155.41
2022-08-24T04:15:32.245Z,99148.19
2022-08-24T04:17:06.098Z,99149.03
2022-08-24T04:18:45.835Z,99146.34
2022-08-24T04:20:19.207Z,99155.16
2022-08-24T04:21:52.474Z,99145.75
2022-08-24T04:23:46.657Z,99150.63
2022-08-24T04:25:24.228Z,99141.78
2022-08-24T04:26:58.251Z,99145.94
2022-08-24T04:28:32.202Z,99138.72
2022-08-24T04:30:07.021Z,99147.75
2022-08-24T04:31:53.555Z,99152.31
2022-08-24T04:33:28.395Z,99151.44
2022-08-24T04:35:03.591Z,99171.25
2022-08-24T04:36:37.863Z,99176.03
2022-08-24T04:38:10.387Z,99164.91
2022-08-24T04:39:45.123Z,99181.31
2022-08-24T04:41:36.321Z,99173.00
2022-08-24T04:43:11.120Z,99168.09
2022-08-24T04:44:45.680Z,99173.22
2022-08-24T04:46:21.050Z,99168.94
2022-08-24T04:47:55.157Z,99169.56
2022-08-24T04:49:34.314Z,99162.44
2022-08-24T04:51:14.070Z,99164.66
2022-08-24T04:52:47.923Z,99169.25
2022-08-24T04:54:23.097Z,99160.69
2022-08-24T04:56:13.869Z,99164.69
2022-08-24T04:57:47.139Z,99174.09
2022-08-24T04:59:20.472Z,99168.72
2022-08-24T05:00:54.469Z,99159.06
2022-08-24T05:02:28.268Z,99163.72
2022-08-24T05:04:05.288Z,99151.91
2022-08-24T05:05:42.007Z,99158.13
2022-08-24T05:07:18.202Z,99147.97
2022-08-24T05:08:52.270Z,99158.19
2022-08-24T05:10:26.698Z,99157.50
2022-08-24T05:12:07.440Z,99153.59
2022-08-24T05:13:45.495Z,99152.25
2022-08-24T05:15:19.302Z,99157.25
2022-08-24T05:16:53.085Z,99155.38
2022-08-24T05:18:29.992Z,99150.38
2022-08-24T05:20:03.772Z,99155.78
2022-08-24T05:21:40.051Z,99147.00
2022-08-24T05:23:15.135Z,99148.72
2022-08-24T05:24:48.398Z,99148.22
2022-08-24T05:26:25.518Z,99141.50
2022-08-24T05:28:01.044Z,99154.81
2022-08-24T05:29:34.907Z,99154.81
2022-08-24T05:31:09.230Z,99159.44
2022-08-24T05:32:42.806Z,99163.84
2022-08-24T05:34:16.415Z,99167.53
2022-08-24T05:35:50.342Z,99163.38
2022-08-24T05:37:24.711Z,99161.19
2022-08-24T05:39:33.138Z,99181.88
2022-08-24T05:41:13.379Z,99174.41
2022-08-24T05:42:48.569Z,99176.88
2022-08-24T05:44:21.603Z,99170.63
2022-08-24T05:45:55.248Z,99173.50
2022-08-24T05:47:28.804Z,99180.81
2022-08-24T05:49:08.322Z,99176.31
2022-08-24T05:50:40.644Z,99171.75
2022-08-24T05:52:16.300Z,99174.19
2022-08-24T05:53:51.582Z,99171.84
2022-08-24T05:55:29.667Z,99165.09
2022-08-24T05:57:05.146Z,99165.59
2022-08-24T05:58:59.276Z,99169.75
2022-08-24T06:00:33.591Z,99166.94
2022-08-24T06:02:06.986Z,99171.31
2022-08-24T06:03:41.220Z,99173.78
2022-08-24T06:05:16.253Z,99162.00
2022-08-24T06:06:50.160Z,99165.81
2022-08-24T06:08:23.906Z,99167.53
2022-08-24T06:10:06.297Z,99169.22
2022-08-24T06:11:50.588Z,99165.56
2022-08-24T06:13:24.474Z,99168.13
2022-08-24T06:14:58.534Z,99178.78
2022-08-24T06:16:32.417Z,99181.47
2022-08-24T06:18:08.434Z,99183.66
2022-08-24T06:19:42.470Z,99179.97
2022-08-24T06:21:18.653Z,99179.03
2022-08-24T06:22:52.579Z,99175.22
2022-08-24T06:24:41.878Z,99183.41
2022-08-24T06:26:32.714Z,99181.19
2022-08-24T06:28:07.409Z,99176.28
2022-08-24T06:29:41.063Z,99176.03
2022-08-24T06:31:39.755Z,99166.72
2022-08-24T06:33:15.875Z,99173.28
2022-08-24T06:34:52.807Z,99177.16
2022-08-24T06:36:25.105Z,99175.06
2022-08-24T06:37:59.035Z,99177.38
2022-08-24T06:39:33.297Z,99177.09
2022-08-24T06:41:09.809Z,99179.78
2022-08-24T06:42:45.824Z,99176.91
2022-08-24T06:44:30.039Z,99174.75
2022-08-24T06:46:13.684Z,99185.22
2022-08-24T06:47:50.447Z,99176.44
2022-08-24T06:49:24.971Z,99184.06
2022-08-24T06:50:59.315Z,99178.41
2022-08-24T06:52:34.346Z,99181.81
2022-08-24T06:54:08.596Z,99177.69
2022-08-24T06:55:46.934Z,99172.56
2022-08-24T06:57:20.654Z,99173.00
2022-08-24T06:58:54.439Z,99181.28
2022-08-24T07:00:30.756Z,99182.75
2022-08-24T07:02:04.210Z,99179.78
2022-08-24T07:03:40.521Z,99185.31
2022-08-24T07:05:36.995Z,99186.50
2022-08-24T07:07:38.784Z,99192.25
2022-08-24T07:09:13.905Z,99192.69
2022-08-24T07:10:47.272Z,99194.00
2022-08-24T07:12:21.024Z,99189.91
2022-08-24T07:13:54.877Z,99196.81
2022-08-24T07:15:32.395Z,99208.13
2022-08-24T07:17:13.975Z,99205.16
2022-08-24T07:18:49.849Z,99205.16
2022-08-24T07:20:26.242Z,99197.34
2022-08-24T07:22:25.925Z,99205.28
2022-08-24T07:24:02.507Z,99209.38
2022-08-24T07:25:40.429Z,99202.78
2022-08-24T07:27:15.861Z,99206.03
2022-08-24T07:28:49.511Z,99199.63
2022-08-24T07:30:27.849Z,99208.16
2022-08-24T07:32:05.558Z,99197.34
2022-08-24T07:33:42.099Z,99206.22
2022-08-24T07:35:16.263Z,99201.44
2022-08-24T07:36:50.891Z,99205.63
2022-08-24T07:38:24.755Z,99206.06
2022-08-24T07:39:58.331Z,99206.78
2022-08-24T07:41:43.550Z,99200.66
2022-08-24T07:43:25.020Z,99205.78
2022-08-24T07:44:58.344Z,99210.59
2022-08-24T07:46:32.665Z,99211.44
2022-08-24T07:48:09.682Z,99211.31
2022-08-24T07:49:49.340Z,99210.50
2022-08-24T07:51:22.963Z,99204.47
2022-08-24T07:52:56.237Z,99208.78
2022-08-24T07:54:30.297Z,99221.00
2022-08-24T07:56:05.708Z,99220.00
2022-08-24T07:57:42.023Z,99224.88
2022-08-24T07:59:15.761Z,99227.88
2022-08-24T08:00:50.275Z,99219.91
2022-08-24T08:02:24.208Z,99219.91
2022-08-24T08:04:05.030Z,99216.00
2022-08-24T08:05:41.473Z,99225.22
2022-08-24T08:07:18.063Z,99228.13
2022-08-24T08:08:54.740Z,99226.91
2022-08-24T08:10:30.828Z,99228.75
2022-08-24T08:12:04.830Z,99219.84
2022-08-24T08:15:15.591Z,99217.16
2022-08-24T08:17:07.611Z,99213.28
2022-08-24T08:18:43.183Z,99227.38
2022-08-24T08:20:20.563Z,99225.84
2022-08-24T08:22:12.684Z,99224.97
2022-08-24T08:24:16.842Z,99220.00
2022-08-24T08:25:58.881Z,99231.25
2022-08-24T08:27:45.522Z,99231.53
2022-08-24T08:29:20.027Z,99223.28
2022-08-24T08:30:54.956Z,99228.84
2022-08-24T08:32:28.694Z,99222.22
2022-08-24T08:34:02.139Z,99229.31
2022-08-24T08:35:38.439Z,99227.28
2022-08-24T08:37:12.659Z,99231.00
2022-08-24T08:38:46.224Z,99231.28
2022-08-24T08:40:31.615Z,99226.72
2022-08-24T08:42:19.618Z,99222.31
2022-08-24T08:44:01.111Z,99222.22
2022-08-24T08:45:56.397Z,99223.91
2022-08-24T08:48:37.546Z,99219.06
2022-08-24T08:50:17.451Z,99218.56
2022-08-24T08:52:29.951Z,99220.53
2022-08-24T08:54:15.358Z,99207.75
2022-08-24T08:55:59.529Z,99223.09
2022-08-24T08:57:48.173Z,99219.16
2022-08-24T08:59:39.987Z,99214.44
2022-08-24T09:01:25.662Z,99217.13
2022-08-24T09:03:29.572Z,99201.47
2022-08-24T09:05:47.838Z,99206.03
2022-08-24T09:07:34.930Z,99206.03
2022-08-24T09:09:42.415Z,99198.06
2022-08-24T09:11:25.845Z,99202.19
2022-08-24T09:13:12.302Z,99201.19
2022-08-24T09:15:11.479Z,99197.78
2022-08-24T09:17:03.557Z,99206.91
2022-08-24T09:18:52.320Z,99208.16
2022-08-24T09:20:44.460Z,99205.47
2022-08-24T09:22:19.560Z,99214.53
2022-08-24T09:24:04.820Z,99224.53
2022-08-24T09:25:49.230Z,99219.22
2022-08-24T09:27:32.869Z,99219.09
2022-08-24T09:29:16.589Z,99219.66
2022-08-24T09:31:22.813Z,99221.88
2022-08-24T09:33:07.623Z,99218.00
2022-08-24T09:34:53.569Z,99214.25
2022-08-24T09:36:40.676Z,99207.78
2022-08-24T09:38:24.467Z,99208.63
2022-08-24T09:40:05.031Z,99202.72
2022-08-24T09:42:13.366Z,99199.06
2022-08-24T09:44:11.361Z,99195.56
2022-08-24T09:46:17.653Z,99184.56
2022-08-24T09:48:15.824Z,99178.22
2022-08-24T09:50:13.175Z,99178.09
2022-08-24T09:52:24.373Z,99169.06
2022-08-24T09:54:30.110Z,99164.84
2022-08-24T09:56:18.659Z,99161.31
2022-08-24T09:58:09.655Z,99151.50
2022-08-24T10:00:00.359Z,99150.59
2022-08-24T10:01:41.896Z,99166.34
2022-08-24T10:03:36.294Z,99168.56
2022-08-24T10:05:27.684Z,99150.13
2022-08-24T10:07:12.026Z,99169.00
2022-08-24T10:09:01.123Z,99156.41
2022-08-24T10:10:48.265Z,99152.16
2022-08-24T10:12:35.865Z,99150.00
2022-08-24T10:14:19.061Z,99152.69
2022-08-24T10:16:09.066Z,99142.19
2022-08-24T10:18:06.276Z,99145.97
2022-08-24T10:19:55.626Z,99123.38
2022-08-24T10:21:45.499Z,99128.81
2022-08-24T10:23:42.636Z,99114.03
2022-08-24T10:25:31.965Z,99117.72
2022-08-24T10:27:18.809Z,99118.09
2022-08-24T10:29:13.665Z,99099.72
2022-08-24T10:31:05.655Z,99093.75
2022-08-24T10:32:54.231Z,99104.59
2022-08-24T10:34:43.743Z,99098.66
2022-08-24T10:36:28.601Z,99110.16
2022-08-24T10:38:37.569Z,99114.03
2022-08-24T10:40:28.412Z,99104.53
2022-08-24T10:42:54.829Z,99106.34
2022-08-24T10:44:48.773Z,99111.94
2022-08-24T10:46:45.900Z,99104.66
2022-08-24T10:48:39.637Z,99109.41
2022-08-24T10:50:38.035Z,99093.09
2022-08-24T10:52:48.358Z,99107.09
2022-08-24T10:54:23.275Z,99098.34
2022-08-24T10:56:10.312Z,99088.84
2022-08-24T10:57:51.609Z,99093.91
2022-08-24T10:59:29.875Z,99086.81
2022-08-24T11:01:24.857Z,99081.44
2022-08-24T11:03:13.021Z,99085.19
2022-08-24T11:04:57.591Z,99097.81
2022-08-24T11:06:34.067Z,99096.06
2022-08-24T11:08:08.456Z,99088.63
2022-08-24T11:09:47.671Z,99094.72
2022-08-24T11:11:26.391Z,99092.03
2022-08-24T11:13:19.990Z,99076.69
2022-08-24T11:14:58.417Z,99079.75
2022-08-24T11:16:35.951Z,99083.47
2022-08-24T11:18:10.571Z,99088.41
2022-08-24T11:19:44.294Z,99068.19
2022-08-24T11:21:39.034Z,99053.59
2022-08-24T11:23:19.281Z,99056.97
2022-08-24T11:24:58.965Z,99051.53
2022-08-24T11:26:33.674Z,99054.59
2022-08-24T11:28:22.447Z,99057.00
2022-08-24T11:29:59.707Z,99049.19
2022-08-24T11:31:36.742Z,99044.06
2022-08-24T11:33:28.472Z,99059.19
2022-08-24T11:35:09.154Z,99054.56
2022-08-24T11:36:43.385Z,99046.97
2022-08-24T11:38:18.846Z,99055.97
2022-08-24T11:39:53.183Z,99054.94
2022-08-24T11:41:35.012Z,99053.22
2022-08-24T11:43:20.442Z,99059.34
2022-08-24T11:45:01.239Z,99061.03
2022-08-24T11:46:46.921Z,99059.00
2022-08-24T11:48:33.683Z,99055.06
2022-08-24T11:50:18.435Z,99061.31
2022-08-24T11:52:04.274Z,99056.56
2022-08-24T11:53:47.940Z,99061.66
2022-08-24T11:55:46.701Z,99062.34
2022-08-24T11:57:28.411Z,99062.03
2022-08-24T11:59:06.286Z,99055.94
2022-08-24T12:00:47.681Z,99062.38
2022-08-24T12:02:27.899Z,99057.31
2022-08-24T12:04:17.616Z,99054.09
2022-08-24T12:05:59.824Z,99057.41
2022-08-24T12:07:51.031Z,99039.50
2022-08-24T12:09:38.185Z,99041.13
2022-08-24T12:11:24.904Z,99032.63
2022-08-24T12:13:04.706Z,99040.50
2022-08-24T12:14:45.387Z,99026.53
2022-08-24T12:16:26.572Z,99025.50
2022-08-24T12:18:05.507Z,99021.41
2022-08-24T12:19:47.728Z,99020.66
2022-08-24T12:21:25.154Z,99028.16
2022-08-24T12:23:02.382Z,99021.69
2022-08-24T12:24:40.810Z,99023.53
2022-08-24T12:26:19.971Z,99023.81
2022-08-24T12:27:55.149Z,99019.22
2022-08-24T12:29:31.836Z,99017.34
2022-08-24T12:31:13.253Z,99023.50
2022-08-24T12:32:51.160Z,99027.25
2022-08-24T12:34:33.591Z,99020.41
2022-08-24T12:36:24.149Z,99021.31
2022-08-24T12:38:03.085Z,99010.19
2022-08-24T12:39:42.779Z,99028.13
2022-08-24T12:41:20.542Z,99010.44
2022-08-24T12:42:57.651Z,99011.53
2022-08-24T12:44:41.998Z,99018.69
2022-08-24T12:46:17.722Z,99021.63
2022-08-24T12:47:58.291Z,99024.81
2022-08-24T12:49:40.262Z,99024.56
2022-08-24T12:51:24.224Z,99029.31
2022-08-24T12:53:29.958Z,99028.63
2022-08-24T12:55:21.752Z,99031.34
2022-08-24T12:57:17.399Z,99030.88
2022-08-24T12:59:01.844Z,99039.88
2022-08-24T13:00:40.991Z,99054.19
2022-08-24T13:02:31.930Z,99055.75
2022-08-24T13:04:18.158Z,99059.69
2022-08-24T13:05:59.609Z,99059.13
2022-08-24T13:07:42.943Z,99058.13
2022-08-24T13:09:29.149Z,99060.53
2022-08-24T13:11:08.629Z,99058.16
2022-08-24T13:13:10.655Z,99064.09
2022-08-24T13:14:50.903Z,99054.28
2022-08-24T13:17:07.780Z,99050.03
2022-08-24T13:18:54.554Z,99055.97
2022-08-24T13:20:31.505Z,99043.03
2022-08-24T13:22:50.493Z,99048.47
2022-08-24T13:25:19.807Z,99042.38
2022-08-24T13:26:56.147Z,99051.38
2022-08-24T13:28:40.288Z,99057.31
2022-08-24T13:30:24.785Z,99050.84
2022-08-24T13:32:01.095Z,99048.09
2022-08-24T13:33:41.318Z,99041.66
2022-08-24T13:35:36.951Z,99041.66
2022-08-24T13:37:16.490Z,99035.88
2022-08-24T13:39:05.387Z,99023.31
2022-08-24T13:40:49.550Z,99024.31
2022-08-24T13:42:48.013Z,99005.59
2022-08-24T13:44:51.571Z,99016.09
2022-08-24T13:46:38.895Z,99012.72
2022-08-24T13:48:21.767Z,99011.75
2022-08-24T13:50:08.990Z,99002.91
2022-08-24T13:51:46.675Z,99006.31
2022-08-24T13:53:45.202Z,98988.47
2022-08-24T13:55:36.649Z,98988.97
2022-08-24T13:57:35.872Z,98983.53
2022-08-24T13:59:14.477Z,98984.53
2022-08-24T14:00:53.573Z,98983.81
2022-08-24T14:02:37.696Z,98982.13
2022-08-24T14:04:30.001Z,98983.50
2022-08-24T14:06:21.286Z,98977.34
2022-08-24T14:08:06.205Z,98975.47
2022-08-24T14:09:48.493Z,98972.91
2022-08-24T14:11:46.139Z,98970.19
2022-08-24T14:13:49.981Z,98969.84
2022-08-24T14:15:34.344Z,98968.16
2022-08-24T14:17:35.345Z,98956.88
2022-08-24T14:19:21.578Z,98947.38
2022-08-24T14:21:07.157Z,98946.56
2022-08-24T14:22:59.077Z,98952.66
2022-08-24T14:24:43.936Z,98949.06
2022-08-24T14:27:00.424Z,98939.16
2022-08-24T14:28:45.419Z,98939.75
2022-08-24T14:30:50.417Z,98931.41
2022-08-24T14:32:30.875Z,98938.75
2022-08-24T14:34:18.004Z,98934.81
2022-08-24T14:36:09.918Z,98945.34
2022-08-24T14:37:56.811Z,98933.59
2022-08-24T14:39:40.440Z,98944.63
2022-08-24T14:41:22.985Z,98947.16
2022-08-24T14:43:00.218Z,98939.16
2022-08-24T14:44:57.820Z,98945.59
2022-08-24T14:46:39.469Z,98938.59
2022-08-24T14:48:21.839Z,98935.22
2022-08-24T14:50:12.640Z,98941.28
2022-08-24T14:52:05.763Z,98934.75
2022-08-24T14:53:57.081Z,98934.00
2022-08-24T14:55:38.610Z,98930.31
2022-08-24T14:58:02.986Z,98931.00
2022-08-24T14:59:49.387Z,98937.31
2022-08-24T15:01:48.554Z,98937.13
2022-08-24T15:03:41.523Z,98932.81
2022-08-24T15:05:23.893Z,98926.25
2022-08-24T15:07:20.671Z,98930.63
2022-08-24T15:08:56.468Z,98928.03
2022-08-24T15:10:36.937Z,98898.31
2022-08-24T15:12:23.010Z,98915.97
2022-08-24T15:14:00.123Z,98912.97
2022-08-24T15:15:39.592Z,98921.78
2022-08-24T15:17:18.980Z,98919.25
2022-08-24T15:19:03.777Z,98923.06
2022-08-24T15:20:54.766Z,98921.56
2022-08-24T15:22:43.845Z,98922.25
2022-08-24T15:24:28.847Z,98920.09
2022-08-24T15:26:09.168Z,98915.41
2022-08-24T15:27:49.053Z,98923.69
2022-08-24T15:29:24.546Z,98923.34
2022-08-24T15:31:00.677Z,98925.19
2022-08-24T15:32:51.969Z,98934.22
2022-08-24T15:34:40.818Z,98929.13
2022-08-24T15:36:18.306Z,98931.88
2022-08-24T15:37:52.483Z,98931.53
2022-08-24T15:39:27.950Z,98923.94
2022-08-24T15:41:14.172Z,98933.47
2022-08-24T15:42:51.177Z,98929.72
2022-08-24T15:44:30.743Z,98937.78
2022-08-24T15:46:05.702Z,98939.50
2022-08-24T15:47:42.785Z,98931.00
2022-08-24T15:49:21.372Z,98933.06
2022-08-24T15:50:56.697Z,98938.50
2022-08-24T15:52:43.397Z,98936.44
2022-08-24T15:54:31.531Z,98923.03
2022-08-24T15:56:28.396Z,98925.94
2022-08-24T15:58:27.030Z,98919.16
2022-08-24T16:00:13.347Z,98925.94
2022-08-24T16:02:14.320Z,98922.88
2022-08-24T16:03:54.072Z,98927.66
2022-08-24T16:05:41.900Z,98921.72
2022-08-24T16:07:25.739Z,98921.56
2022-08-24T16:09:02.451Z,98920.88
2022-08-24T16:10:40.529Z,98921.25
2022-08-24T16:12:17.249Z,98921.25
2022-08-24T16:13:51.543Z,98923.09
2022-08-24T16:15:24.998Z,98934.16
2022-08-24T16:16:59.051Z,98939.59
2022-08-24T16:18:52.093Z,98930.09
2022-08-24T16:20:36.198Z,98939.28
2022-08-24T16:22:11.861Z,98934.88
2022-08-24T16:23:47.554Z,98949.22
2022-08-24T16:25:27.526Z,98940.34
2022-08-24T16:27:06.553Z,98922.69
2022-08-24T16:28:40.088Z,98946.66
2022-08-24T16:30:23.548Z,98945.47
2022-08-24T16:32:10.028Z,98941.41
2022-08-24T16:33:46.195Z,98938.34
2022-08-24T16:35:21.802Z,98946.19
2022-08-24T16:36:55.402Z,98945.50
2022-08-24T16:38:31.990Z,98932.75
2022-08-24T16:40:06.271Z,98935.66
2022-08-24T16:41:40.286Z,98941.75
2022-08-24T16:43:15.327Z,98947.72
2022-08-24T16:44:49.441Z,98956.41
2022-08-24T16:46:24.504Z,98956.72
2022-08-24T16:47:57.966Z,98956.56
2022-08-24T16:49:31.975Z,98954.69
2022-08-24T16:51:06.015Z,98961.81
2022-08-24T16:52:39.723Z,98974.03
2022-08-24T16:54:14.990Z,98978.13
2022-08-24T16:55:48.878Z,98987.63
2022-08-24T16:57:24.850Z,98991.69
2022-08-24T16:58:58.443Z,98987.25
2022-08-24T17:00:31.669Z,98980.47
2022-08-24T17:02:05.584Z,98987.91
2022-08-24T17:03:40.461Z,98988.25
2022-08-24T17:05:14.854Z,98996.03
2022-08-24T17:06:50.829Z,99000.44
2022-08-24T17:08:29.658Z,99009.59
2022-08-24T17:10:07.765Z,99016.03
2022-08-24T17:11:41.674Z,99012.81
2022-08-24T17:13:33.046Z,99021.44
2022-08-24T17:15:17.139Z,99017.84
2022-08-24T17:16:50.543Z,99019.03
2022-08-24T17:18:35.850Z,99007.44
2022-08-24T17:20:11.094Z,99009.78
2022-08-24T17:21:44.746Z,99020.94
2022-08-24T17:23:19.207Z,99020.91
2022-08-24T17:24:53.256Z,99026.13
2022-08-24T17:26:32.966Z,99026.25
2022-08-24T17:28:14.177Z,99033.34
2022-08-24T17:29:48.113Z,99028.03
2022-08-24T17:31:25.076Z,99035.75
2022-08-24T17:32:58.419Z,99040.31
2022-08-24T17:34:32.384Z,99041.91
2022-08-24T17:36:06.035Z,99042.53
2022-08-24T17:37:39.417Z,99045.19
2022-08-24T17:39:14.779Z,99047.53
2022-08-24T17:40:48.304Z,99047.69
2022-08-24T17:42:48.943Z,99044.41
2022-08-24T17:44:20.861Z,99052.16
2022-08-24T17:45:54.863Z,99057.88
2022-08-24T17:47:28.782Z,99051.78
2022-08-24T17:49:02.120Z,99067.34
2022-08-24T17:50:36.770Z,99065.94
2022-08-24T17:52:10.664Z,99063.09
2022-08-24T17:53:44.225Z,99068.28
2022-08-24T17:55:25.113Z,99060.84
2022-08-24T17:56:59.763Z,99065.88
2022-08-24T17:58:54.718Z,99061.06
2022-08-24T18:00:29.331Z,99075.78
2022-08-24T18:02:05.534Z,99071.81
2022-08-24T18:03:40.228Z,99080.38
2022-08-24T18:05:15.691Z,99081.00
2022-08-24T18:06:50.986Z,99085.31
2022-08-24T18:08:25.517Z,99089.84
2022-08-24T18:10:01.306Z,99086.44
2022-08-24T18:11:35.715Z,99083.03
2022-08-24T18:13:15.757Z,99087.59
2022-08-24T18:14:55.456Z,99082.47
2022-08-24T18:16:33.806Z,99098.19
2022-08-24T18:18:10.912Z,99116.41
2022-08-24T18:19:48.939Z,99123.13
2022-08-24T18:21:23.845Z,99121.06
2022-08-24T18:22:58.540Z,99121.63
2022-08-24T18:24:34.443Z,99116.50
2022-08-24T18:26:13.171Z,99120.53
2022-08-24T18:27:50.764Z,99114.00
2022-08-24T18:29:25.506Z,99128.53
2022-08-24T18:31:02.371Z,99133.25
2022-08-24T18:32:39.890Z,99140.38
2022-08-24T18:34:19.662Z,99141.66
2022-08-24T18:35:57.095Z,99150.31
2022-08-24T18:37:34.655Z,99150.03
2022-08-24T18:39:09.121Z,99147.31
2022-08-24T18:40:52.790Z,99148.47
2022-08-24T18:42:30.345Z,99159.00
2022-08-24T18:44:15.432Z,99145.50
2022-08-24T18:45:51.111Z,99146.22
2022-08-24T18:47:27.689Z,99155.47
2022-08-24T18:49:02.329Z,99150.50
2022-08-24T18:50:42.041Z,99143.38
2022-08-24T18:52:21.089Z,99149.09
2022-08-24T18:54:01.630Z,99136.84
2022-08-24T18:55:37.859Z,99144.97
2022-08-24T18:57:12.673Z,99147.94
2022-08-24T18:58:50.463Z,99142.69
2022-08-24T19:00:24.955Z,99155.53
2022-08-24T19:02:18.811Z,99150.53
2022-08-24T19:03:56.680Z,99149.97
2022-08-24T19:05:30.196Z,99145.97
2022-08-24T19:07:03.442Z,99148.53
2022-08-24T19:08:38.166Z,99149.94
2022-08-24T19:10:15.867Z,99143.66
2022-08-24T19:11:54.454Z,99142.81
2022-08-24T19:13:28.934Z,99144.69
2022-08-24T19:15:05.870Z,99140.25
2022-08-24T19:16:39.863Z,99146.53
2022-08-24T19:18:14.357Z,99140.44
2022-08-24T19:19:51.477Z,99138.41
2022-08-24T19:21:27.472Z,99136.56
2022-08-24T19:23:07.700Z,99143.66
2022-08-24T19:24:43.729Z,99142.25
2022-08-24T19:26:18.853Z,99145.97
2022-08-24T19:27:56.142Z,99140.13
2022-08-24T19:29:53.918Z,99132.31
2022-08-24T19:31:26.234Z,99128.91
2022-08-24T19:33:00.597Z,99135.31
2022-08-24T19:34:34.630Z,99127.50
2022-08-24T19:36:09.629Z,99118.53
2022-08-24T19:37:45.493Z,99124.66
2022-08-24T19:39:22.876Z,99133.75
2022-08-24T19:41:11.202Z,99128.94
2022-08-24T19:42:49.505Z,99128.50